Terminal Aerodrome Forecast
Issued by NWS Portland, OR

Home | Current Version | Previous Version | Text Only | Print | Product List | Glossary On
Versions: 1 2 3 4 5 6 7 8 9 10 11 12 13 14 15 16 17
000
FTUS46 KPQR 270541
TAFAST
TAF
KAST 270541Z 2706/2806 29007KT P6SM OVC015
     FM270900 24005KT P6SM OVC007
     FM271600 26005KT P6SM SCT007 OVC015
     FM280000 29011KT P6SM OVC015
     FM280200 30011KT P6SM OVC007=

USA.gov is the U.S. government's official web portal to all federal, state and local government web resources and services.